createdAt,value
2023-04-01T00:00:56.830Z,4.20
2023-04-01T00:03:26.724Z,4.07
2023-04-01T00:05:55.210Z,4.00
2023-04-01T00:08:25.122Z,4.27
2023-04-01T00:10:53.443Z,4.37
2023-04-01T00:13:22.367Z,4.80
2023-04-01T00:15:51.061Z,4.63
2023-04-01T00:18:19.199Z,4.47
2023-04-01T00:20:48.420Z,4.40
2023-04-01T00:23:17.195Z,4.40
2023-04-01T00:25:49.033Z,4.60
2023-04-01T00:28:17.581Z,5.17
2023-04-01T00:30:45.925Z,4.70
2023-04-01T00:33:14.098Z,5.00
2023-04-01T00:35:42.998Z,4.93
2023-04-01T00:38:12.377Z,5.27
2023-04-01T00:40:42.303Z,5.00
2023-04-01T00:43:18.973Z,4.83
2023-04-01T00:45:48.600Z,5.23
2023-04-01T00:48:21.577Z,5.30
2023-04-01T00:50:53.462Z,5.63
2023-04-01T00:53:22.610Z,5.83
2023-04-01T00:55:55.465Z,6.27
2023-04-01T00:58:28.011Z,5.60
2023-04-01T01:00:57.574Z,5.93
2023-04-01T01:03:26.017Z,5.67
2023-04-01T01:06:26.335Z,5.73
2023-04-01T01:09:08.575Z,6.13
2023-04-01T01:11:43.541Z,6.27
2023-04-01T01:14:26.564Z,6.30
2023-04-01T01:17:01.097Z,6.97
2023-04-01T01:19:59.012Z,6.63
2023-04-01T01:22:41.559Z,6.67
2023-04-01T01:25:22.068Z,7.33
2023-04-01T01:27:58.809Z,6.93
2023-04-01T01:30:45.201Z,7.03
2023-04-01T01:33:47.069Z,7.20
2023-04-01T01:36:20.351Z,7.57
2023-04-01T01:38:50.991Z,7.00
2023-04-01T01:41:21.209Z,6.67
2023-04-01T01:43:52.332Z,7.17
2023-04-01T01:46:24.267Z,7.30
2023-04-01T01:48:54.103Z,7.50
2023-04-01T01:51:24.938Z,7.23
2023-04-01T01:53:53.150Z,7.17
2023-04-01T01:56:25.593Z,7.17
2023-04-01T01:58:57.763Z,7.30
2023-04-01T02:01:28.582Z,8.00
2023-04-01T02:04:01.405Z,8.20
2023-04-01T02:06:36.979Z,7.83
2023-04-01T02:09:07.838Z,8.37
2023-04-01T02:11:40.565Z,7.77
2023-04-01T02:14:12.818Z,8.37
2023-04-01T02:16:45.365Z,8.87
2023-04-01T02:19:15.593Z,8.40
2023-04-01T02:21:46.342Z,7.93
2023-04-01T02:24:17.072Z,8.30
2023-04-01T02:26:47.129Z,8.77
2023-04-01T02:29:16.090Z,8.20
2023-04-01T02:31:45.172Z,8.40
2023-04-01T02:34:14.058Z,8.43
2023-04-01T02:36:42.218Z,8.77
2023-04-01T02:39:11.913Z,8.80
2023-04-01T02:41:44.487Z,8.97
2023-04-01T02:44:13.464Z,7.93
2023-04-01T02:46:41.843Z,8.60
2023-04-01T02:49:10.209Z,8.50
2023-04-01T02:51:38.349Z,9.20
2023-04-01T02:54:06.502Z,9.13
2023-04-01T02:56:35.956Z,8.77
2023-04-01T02:59:04.189Z,8.80
2023-04-01T03:01:32.421Z,9.17
2023-04-01T03:04:00.764Z,8.80
2023-04-01T03:06:28.982Z,9.20
2023-04-01T03:08:57.086Z,9.43
2023-04-01T03:11:26.848Z,9.10
2023-04-01T03:13:56.405Z,9.60
2023-04-01T03:16:26.000Z,9.13
2023-04-01T03:18:55.215Z,9.80
2023-04-01T03:21:25.337Z,10.60
2023-04-01T03:23:53.551Z,9.20
2023-04-01T03:26:22.567Z,9.50
2023-04-01T03:28:50.974Z,9.40
2023-04-01T03:31:22.413Z,9.80
2023-04-01T03:33:55.211Z,9.80
2023-04-01T03:36:24.411Z,10.40
2023-04-01T03:38:52.491Z,10.30
2023-04-01T03:41:27.360Z,9.70
2023-04-01T03:43:56.073Z,10.03
2023-04-01T03:46:25.559Z,10.33
2023-04-01T03:48:53.628Z,10.20
2023-04-01T03:51:21.797Z,11.17
2023-04-01T03:53:51.269Z,10.87
2023-04-01T03:56:19.381Z,10.87
2023-04-01T03:58:47.751Z,10.47
2023-04-01T04:01:17.834Z,10.33
2023-04-01T04:03:48.234Z,10.57
2023-04-01T04:06:16.675Z,10.93
2023-04-01T04:08:45.339Z,10.70
2023-04-01T04:11:14.518Z,11.53
2023-04-01T04:13:44.713Z,10.90
2023-04-01T04:16:13.392Z,10.60
2023-04-01T04:18:47.467Z,10.10
2023-04-01T04:21:16.963Z,10.57
2023-04-01T04:23:45.582Z,10.80
2023-04-01T04:26:17.284Z,10.90
2023-04-01T04:28:50.905Z,10.73
2023-04-01T04:31:22.040Z,10.97
2023-04-01T04:33:53.056Z,10.47
2023-04-01T04:36:22.076Z,10.33
2023-04-01T04:38:51.830Z,10.60
2023-04-01T04:41:23.244Z,10.13
2023-04-01T04:43:53.870Z,10.33
2023-04-01T04:46:22.405Z,10.47
2023-04-01T04:48:59.884Z,10.20
2023-04-01T04:51:28.416Z,10.30
2023-04-01T04:53:56.645Z,10.30
2023-04-01T04:56:35.283Z,9.60
2023-04-01T04:59:08.616Z,10.70
2023-04-01T05:01:51.593Z,10.17
2023-04-01T05:04:21.057Z,10.37
2023-04-01T05:06:49.580Z,9.57
2023-04-01T05:09:18.805Z,9.07
2023-04-01T05:11:47.046Z,9.67
2023-04-01T05:14:16.319Z,10.07
2023-04-01T05:16:50.421Z,9.70
2023-04-01T05:19:19.963Z,9.80
2023-04-01T05:21:48.483Z,9.40
2023-04-01T05:24:17.628Z,9.80
2023-04-01T05:26:46.521Z,9.80
2023-04-01T05:29:14.757Z,9.80
2023-04-01T05:31:43.797Z,9.20
2023-04-01T05:34:11.869Z,9.27
2023-04-01T05:36:42.757Z,9.53
2023-04-01T05:39:11.307Z,9.37
2023-04-01T05:41:41.392Z,8.63
2023-04-01T05:44:09.444Z,9.13
2023-04-01T05:46:43.374Z,9.40
2023-04-01T05:49:31.912Z,14.80
2023-04-01T05:52:01.397Z,9.43
2023-04-01T05:54:30.078Z,9.27
2023-04-01T05:56:58.252Z,8.80
2023-04-01T05:59:26.557Z,8.63
2023-04-01T06:01:55.204Z,8.33
2023-04-01T06:04:23.729Z,8.43
2023-04-01T06:06:52.513Z,8.33
2023-04-01T06:09:28.408Z,8.00
2023-04-01T06:12:16.182Z,8.80
2023-04-01T06:15:04.508Z,8.70
2023-04-01T06:17:46.891Z,8.70
2023-04-01T06:20:27.953Z,8.00
2023-04-01T06:23:21.305Z,8.10
2023-04-01T06:26:05.256Z,7.60
2023-04-01T06:29:11.260Z,7.73
2023-04-01T06:32:02.733Z,8.13
2023-04-01T06:34:50.760Z,7.40
2023-04-01T06:37:34.152Z,7.40
2023-04-01T06:40:14.957Z,8.07
2023-04-01T06:43:02.208Z,8.07
2023-04-01T06:45:57.514Z,8.30
2023-04-01T06:49:23.610Z,8.07
2023-04-01T06:52:16.902Z,7.53
2023-04-01T06:55:19.577Z,7.97
2023-04-01T06:58:19.127Z,7.50
2023-04-01T07:00:50.515Z,7.80
2023-04-01T07:03:24.214Z,7.30
2023-04-01T07:05:52.746Z,7.40
2023-04-01T07:08:26.357Z,7.17
2023-04-01T07:10:59.069Z,7.17
2023-04-01T07:13:52.907Z,7.20
2023-04-01T07:16:26.335Z,6.97
2023-04-01T07:19:00.098Z,7.07
2023-04-01T07:21:42.452Z,6.40
2023-04-01T07:24:24.807Z,6.27
2023-04-01T07:27:04.281Z,5.50
2023-04-01T07:29:38.151Z,6.00
2023-04-01T07:32:17.139Z,5.87
2023-04-01T07:34:58.206Z,6.60
2023-04-01T07:37:32.763Z,5.93
2023-04-01T07:40:13.646Z,5.90
2023-04-01T07:42:59.741Z,5.37
2023-04-01T07:45:34.376Z,5.20
2023-04-01T07:48:14.081Z,4.90
2023-04-01T07:50:51.880Z,6.10
2023-04-01T07:53:28.690Z,5.30
2023-04-01T07:56:09.022Z,4.53
2023-04-01T07:58:53.964Z,4.33
2023-04-01T08:01:57.463Z,4.97
2023-04-01T08:04:37.407Z,5.00
2023-04-01T08:07:12.262Z,4.73
2023-04-01T08:09:55.387Z,4.43
2023-04-01T08:12:56.746Z,3.90
2023-04-01T08:16:06.008Z,4.23
2023-04-01T08:18:49.081Z,5.20
2023-04-01T08:21:23.718Z,3.77
2023-04-01T08:23:54.733Z,4.40
2023-04-01T08:26:33.028Z,4.27
2023-04-01T08:29:06.293Z,4.47
2023-04-01T08:31:39.808Z,3.93
2023-04-01T08:34:17.164Z,4.00
2023-04-01T08:36:50.851Z,3.80
2023-04-01T08:39:24.280Z,3.90
2023-04-01T08:42:25.130Z,3.53
2023-04-01T08:45:25.645Z,4.27
2023-04-01T08:48:35.032Z,3.60
2023-04-01T08:51:33.500Z,3.73
2023-04-01T08:54:17.028Z,4.00
2023-04-01T08:56:55.799Z,4.10
2023-04-01T08:59:38.593Z,3.37
2023-04-01T09:02:42.654Z,3.20
2023-04-01T09:05:46.714Z,3.23
2023-04-01T09:08:32.679Z,2.97
2023-04-01T09:11:26.261Z,6.10
2023-04-01T09:14:57.958Z,3.73
2023-04-01T09:18:03.576Z,3.70
2023-04-01T09:20:48.552Z,3.37
2023-04-01T09:23:37.250Z,3.30
2023-04-01T09:26:19.635Z,3.00
2023-04-01T09:28:58.197Z,3.07
2023-04-01T09:31:50.140Z,4.10
2023-04-01T09:34:54.947Z,4.40
2023-04-01T09:37:37.213Z,4.17
2023-04-01T09:40:19.516Z,4.00
2023-04-01T09:43:18.431Z,4.63
2023-04-01T09:45:54.563Z,4.53
2023-04-01T09:48:46.153Z,4.00
2023-04-01T09:51:28.554Z,3.70
2023-04-01T09:54:09.877Z,4.57
2023-04-01T09:57:20.625Z,3.90
2023-04-01T10:00:22.726Z,4.70
2023-04-01T10:03:29.681Z,3.97
2023-04-01T10:06:49.179Z,4.00
2023-04-01T10:10:05.349Z,3.47
2023-04-01T10:13:01.831Z,4.00
2023-04-01T10:16:02.447Z,4.53
2023-04-01T10:19:04.753Z,4.70
2023-04-01T10:21:58.827Z,5.40
2023-04-01T10:24:58.437Z,5.13
2023-04-01T10:27:50.861Z,4.83
2023-04-01T10:31:28.040Z,5.27
2023-04-01T10:34:26.144Z,5.13
2023-04-01T10:36:55.628Z,5.10
2023-04-01T10:39:57.358Z,5.60
2023-04-01T10:43:25.949Z,4.50
2023-04-01T10:46:33.576Z,3.20
2023-04-01T10:49:30.990Z,3.17
2023-04-01T10:52:20.088Z,2.80
2023-04-01T10:55:34.658Z,3.00
2023-04-01T10:58:51.737Z,2.50
2023-04-01T11:02:17.013Z,2.50
2023-04-01T11:06:14.066Z,2.60
2023-04-01T11:09:19.411Z,2.50
2023-04-01T11:12:38.263Z,2.77
2023-04-01T11:15:39.794Z,3.47
2023-04-01T11:18:53.019Z,3.67
2023-04-01T11:21:49.932Z,4.03
2023-04-01T11:25:01.495Z,4.57
2023-04-01T11:28:31.446Z,4.50
2023-04-01T11:31:19.486Z,3.87
2023-04-01T11:33:56.276Z,3.23
2023-04-01T11:36:40.084Z,2.77
2023-04-01T11:39:26.796Z,2.57
2023-04-01T11:42:17.816Z,2.90
2023-04-01T11:45:22.056Z,3.33
2023-04-01T11:48:05.670Z,4.00
2023-04-01T11:50:44.746Z,5.37
2023-04-01T11:53:38.592Z,5.40
2023-04-01T11:56:21.000Z,6.40
2023-04-01T11:59:21.494Z,7.00
2023-04-01T12:01:59.060Z,6.90
2023-04-01T12:04:55.800Z,5.55
2023-04-01T12:07:36.616Z,5.05
2023-04-01T12:10:17.523Z,3.80
2023-04-01T12:13:01.639Z,3.40
2023-04-01T12:15:47.514Z,3.15
2023-04-01T12:18:20.971Z,3.08
2023-04-01T12:20:54.423Z,3.10
2023-04-01T12:23:39.206Z,3.38
2023-04-01T12:26:28.826Z,3.15
2023-04-01T12:29:21.123Z,3.30
2023-04-01T12:31:57.383Z,3.45
2023-04-01T12:34:42.762Z,3.80
2023-04-01T12:37:20.482Z,4.13
2023-04-01T12:40:08.585Z,3.90
2023-04-01T12:42:52.673Z,2.77
2023-04-01T12:45:37.103Z,4.57
2023-04-01T12:48:28.113Z,3.90
2023-04-01T12:51:37.857Z,4.03
2023-04-01T12:54:44.452Z,4.37
2023-04-01T12:57:34.178Z,4.40
2023-04-01T13:00:16.134Z,4.50
2023-04-01T13:02:59.872Z,4.90
2023-04-01T13:05:52.857Z,3.80
2023-04-01T13:08:34.524Z,4.73
2023-04-01T13:11:17.016Z,5.20
2023-04-01T13:14:25.047Z,4.37
2023-04-01T13:17:06.121Z,3.60
2023-04-01T13:19:43.212Z,3.40
2023-04-01T13:22:24.244Z,3.20
2023-04-01T13:24:59.805Z,2.83
2023-04-01T13:27:36.857Z,3.10
2023-04-01T13:30:24.693Z,3.10
2023-04-01T13:33:00.452Z,3.43
2023-04-01T13:35:41.185Z,3.37
2023-04-01T13:38:41.646Z,3.57
2023-04-01T13:41:20.245Z,3.87
2023-04-01T13:43:53.181Z,3.90
2023-04-01T13:46:40.154Z,4.27
2023-04-01T13:49:48.530Z,4.30
2023-04-01T13:52:49.504Z,3.50
2023-04-01T13:55:36.920Z,3.43
2023-04-01T13:58:33.559Z,7.80
2023-04-01T14:01:11.706Z,3.70
2023-04-01T14:03:59.248Z,3.10
2023-04-01T14:06:38.892Z,3.47
2023-04-01T14:09:25.584Z,2.80
2023-04-01T14:12:03.694Z,2.80
2023-04-01T14:14:47.137Z,2.80
2023-04-01T14:17:45.757Z,3.30
2023-04-01T14:20:27.861Z,2.63
2023-04-01T14:23:15.846Z,3.17
2023-04-01T14:26:22.784Z,2.70
2023-04-01T14:29:04.287Z,2.80
2023-04-01T14:31:56.718Z,2.65
2023-04-01T14:34:37.097Z,2.85
2023-04-01T14:37:21.927Z,2.50
2023-04-01T14:40:16.952Z,3.00
2023-04-01T14:43:03.563Z,3.20
2023-04-01T14:46:00.755Z,3.73
2023-04-01T14:48:34.457Z,3.83
2023-04-01T14:51:11.629Z,3.93
2023-04-01T14:53:46.831Z,4.60
2023-04-01T14:56:35.059Z,4.40
2023-04-01T14:59:03.697Z,5.30
2023-04-01T15:01:45.864Z,5.70
2023-04-01T15:04:39.454Z,5.10
2023-04-01T15:07:26.047Z,5.80
2023-04-01T15:10:06.356Z,7.10
2023-04-01T15:12:45.806Z,6.70
2023-04-01T15:15:28.071Z,7.77
2023-04-01T15:18:10.403Z,7.87
2023-04-01T15:20:52.568Z,7.30
2023-04-01T15:23:34.285Z,8.40
2023-04-01T15:26:30.200Z,8.67
2023-04-01T15:29:25.108Z,10.93
2023-04-01T15:31:59.240Z,10.40
2023-04-01T15:34:38.457Z,11.30
2023-04-01T15:37:17.293Z,11.20
2023-04-01T15:39:56.681Z,12.40
2023-04-01T15:42:35.628Z,13.50
2023-04-01T15:45:36.030Z,15.97
2023-04-01T15:48:08.689Z,16.83
2023-04-01T15:50:53.834Z,18.33
2023-04-01T15:53:37.565Z,19.60
2023-04-01T15:56:18.438Z,20.60
2023-04-01T15:58:59.407Z,19.50
2023-04-01T16:01:36.950Z,21.00
2023-04-01T16:04:25.520Z,24.97
2023-04-01T16:07:11.464Z,23.70
2023-04-01T16:10:01.679Z,23.13
2023-04-01T16:12:50.051Z,23.80
2023-04-01T16:15:29.272Z,23.87
2023-04-01T16:18:12.999Z,23.37
2023-04-01T16:20:56.130Z,22.17
2023-04-01T16:23:32.249Z,20.83
2023-04-01T16:26:09.019Z,21.23
2023-04-01T16:28:44.755Z,20.77
2023-04-01T16:31:19.045Z,22.77
2023-04-01T16:33:53.414Z,22.23
2023-04-01T16:36:30.604Z,22.30
2023-04-01T16:39:13.818Z,22.43
2023-04-01T16:41:49.826Z,21.30
2023-04-01T16:44:22.922Z,21.63
2023-04-01T16:46:56.663Z,21.67
2023-04-01T16:49:38.854Z,23.10
2023-04-01T16:52:17.340Z,22.83
2023-04-01T16:54:58.142Z,24.93
2023-04-01T16:57:30.640Z,24.80
2023-04-01T17:00:05.326Z,25.47
2023-04-01T17:02:39.846Z,25.57
2023-04-01T17:05:14.076Z,25.80
2023-04-01T17:07:51.475Z,27.00
2023-04-01T17:10:39.673Z,26.47
2023-04-01T17:13:35.533Z,28.00
2023-04-01T17:16:17.153Z,28.67
2023-04-01T17:18:54.012Z,31.00
2023-04-01T17:21:28.746Z,31.83
2023-04-01T17:24:11.410Z,32.27
2023-04-01T17:26:48.566Z,32.90
2023-04-01T17:29:30.217Z,33.37
2023-04-01T17:32:12.044Z,34.17
2023-04-01T17:34:49.614Z,33.10
2023-04-01T17:37:33.039Z,33.57
2023-04-01T17:40:16.388Z,31.83
2023-04-01T17:42:55.406Z,32.77
2023-04-01T17:45:30.253Z,32.13
2023-04-01T17:48:14.594Z,32.37
2023-04-01T17:50:55.722Z,31.43
2023-04-01T17:53:37.673Z,31.53
2023-04-01T17:56:24.452Z,33.83
2023-04-01T17:59:03.981Z,34.70
2023-04-01T18:01:47.872Z,36.60
2023-04-01T18:04:42.985Z,36.37
2023-04-01T18:07:34.304Z,38.97
2023-04-01T18:10:23.296Z,40.40
2023-04-01T18:13:20.477Z,42.73
2023-04-01T18:16:00.628Z,42.20
2023-04-01T18:18:49.235Z,44.27
2023-04-01T18:21:27.664Z,44.20
2023-04-01T18:24:02.619Z,46.20
2023-04-01T18:26:34.246Z,47.07
2023-04-01T18:29:13.361Z,47.40
2023-04-01T18:31:47.975Z,47.87
2023-04-01T18:34:29.346Z,47.00
2023-04-01T18:37:01.811Z,48.13
2023-04-01T18:39:37.796Z,50.13
2023-04-01T18:42:18.360Z,48.97
2023-04-01T18:44:51.137Z,49.40
2023-04-01T18:47:29.463Z,51.13
2023-04-01T18:50:04.460Z,51.00
2023-04-01T18:52:38.297Z,52.63
2023-04-01T18:55:35.949Z,51.80
2023-04-01T18:58:27.912Z,52.07
2023-04-01T19:01:10.000Z,52.77
2023-04-01T19:03:48.293Z,52.80
2023-04-01T19:06:24.106Z,52.30
2023-04-01T19:08:54.703Z,53.83
2023-04-01T19:11:35.205Z,53.03
2023-04-01T19:14:15.299Z,54.00
2023-04-01T19:16:54.857Z,55.63
2023-04-01T19:19:44.564Z,55.33
2023-04-01T19:22:26.889Z,56.67
2023-04-01T19:25:18.197Z,55.97
2023-04-01T19:27:51.069Z,57.43
2023-04-01T19:30:33.944Z,57.53
2023-04-01T19:33:21.909Z,59.20
2023-04-01T19:35:59.965Z,57.80
2023-04-01T19:38:36.005Z,60.47
2023-04-01T19:41:12.339Z,59.53
2023-04-01T19:43:55.762Z,61.23
2023-04-01T19:46:32.922Z,63.57
2023-04-01T19:49:22.836Z,65.87
2023-04-01T19:51:59.430Z,67.07
2023-04-01T19:54:35.074Z,70.60
2023-04-01T19:57:15.040Z,71.27
2023-04-01T19:59:50.583Z,75.03
2023-04-01T20:02:34.653Z,74.20
2023-04-01T20:05:13.553Z,76.23
2023-04-01T20:07:50.383Z,77.67
2023-04-01T20:10:24.038Z,76.60
2023-04-01T20:13:00.052Z,77.30
2023-04-01T20:15:35.306Z,79.50
2023-04-01T20:18:06.439Z,78.10
2023-04-01T20:20:36.346Z,80.90
2023-04-01T20:23:35.842Z,80.50
2023-04-01T20:26:08.786Z,82.13
2023-04-01T20:28:45.880Z,80.83
2023-04-01T20:31:33.462Z,83.63
2023-04-01T20:34:16.294Z,84.77
2023-04-01T20:36:58.710Z,85.77
2023-04-01T20:39:44.172Z,86.57
2023-04-01T20:42:33.822Z,87.37
2023-04-01T20:45:17.657Z,87.30
2023-04-01T20:47:59.164Z,86.47
2023-04-01T20:50:31.739Z,84.87
2023-04-01T20:53:07.875Z,84.63
2023-04-01T20:56:09.123Z,85.43
2023-04-01T20:58:49.292Z,85.10
2023-04-01T21:01:31.388Z,85.97
2023-04-01T21:04:18.968Z,85.23
2023-04-01T21:06:57.216Z,84.93
2023-04-01T21:09:43.837Z,84.33
2023-04-01T21:12:28.587Z,85.73
2023-04-01T21:15:32.237Z,84.73
2023-04-01T21:18:12.789Z,82.07
2023-04-01T21:20:58.012Z,84.37
2023-04-01T21:23:40.280Z,84.43
2023-04-01T21:26:23.176Z,84.00
2023-04-01T21:29:27.520Z,86.33
2023-04-01T21:32:07.541Z,85.70
2023-04-01T21:34:52.694Z,85.40
2023-04-01T21:37:47.550Z,84.40
2023-04-01T21:40:53.144Z,83.70
2023-04-01T21:43:41.897Z,84.47
2023-04-01T21:46:38.228Z,83.73
2023-04-01T21:49:28.956Z,85.53
2023-04-01T21:52:11.849Z,85.87
2023-04-01T21:55:23.533Z,86.37
2023-04-01T21:58:22.899Z,85.10
2023-04-01T22:00:58.645Z,85.17
2023-04-01T22:04:05.129Z,83.37
2023-04-01T22:06:39.094Z,85.60
2023-04-01T22:09:15.205Z,88.23
2023-04-01T22:11:55.423Z,86.80
2023-04-01T22:14:32.552Z,88.13
2023-04-01T22:17:04.529Z,88.43
2023-04-01T22:19:42.768Z,89.77
2023-04-01T22:22:19.173Z,87.63
2023-04-01T22:24:59.858Z,87.97
2023-04-01T22:27:34.086Z,88.87
2023-04-01T22:30:12.599Z,87.87
2023-04-01T22:32:45.716Z,88.43
2023-04-01T22:35:29.246Z,88.07
2023-04-01T22:38:05.869Z,87.47
2023-04-01T22:40:40.709Z,87.70
2023-04-01T22:43:13.800Z,87.83
2023-04-01T22:46:14.799Z,87.87
2023-04-01T22:48:46.530Z,89.13
2023-04-01T22:51:21.174Z,88.67
2023-04-01T22:54:01.670Z,90.93
2023-04-01T22:56:35.007Z,91.00
2023-04-01T22:59:11.420Z,91.10
2023-04-01T23:01:46.981Z,92.47
2023-04-01T23:04:19.259Z,90.00
2023-04-01T23:06:54.823Z,87.87
2023-04-01T23:09:26.159Z,89.30
2023-04-01T23:11:57.254Z,88.53
2023-04-01T23:14:44.655Z,90.50
2023-04-01T23:17:36.207Z,87.30
2023-04-01T23:20:17.915Z,89.07
2023-04-01T23:22:56.964Z,87.60
2023-04-01T23:25:41.025Z,87.10
2023-04-01T23:28:30.561Z,86.73
2023-04-01T23:30:58.785Z,87.77
2023-04-01T23:33:30.974Z,88.30
2023-04-01T23:36:06.400Z,87.17
2023-04-01T23:38:39.564Z,88.73
2023-04-01T23:41:08.965Z,88.20
2023-04-01T23:43:41.015Z,86.23
2023-04-01T23:46:10.167Z,87.33
2023-04-01T23:48:42.080Z,89.10
2023-04-01T23:51:16.782Z,88.77
2023-04-01T23:53:48.517Z,88.03
2023-04-01T23:56:19.515Z,87.30
2023-04-01T23:58:53.428Z,89.20
